createdAt,value
2019-03-15T00:01:40.528Z,6.20
2019-03-15T00:04:08.934Z,6.20
2019-03-15T00:06:37.446Z,6.20
2019-03-15T00:09:08.092Z,6.30
2019-03-15T00:11:36.550Z,6.20
2019-03-15T00:14:05.403Z,6.20
2019-03-15T00:16:33.830Z,6.20
2019-03-15T00:19:02.246Z,6.20
2019-03-15T00:21:30.764Z,6.20
2019-03-15T00:23:59.169Z,6.20
2019-03-15T00:26:27.580Z,6.20
2019-03-15T00:28:56.002Z,6.30
2019-03-15T00:31:24.437Z,6.20
2019-03-15T00:33:52.866Z,6.20
2019-03-15T00:36:21.301Z,6.20
2019-03-15T00:38:49.751Z,6.20
2019-03-15T00:41:18.174Z,6.20
2019-03-15T00:43:49.189Z,6.20
2019-03-15T00:46:16.741Z,6.20
2019-03-15T00:48:45.164Z,6.20
2019-03-15T00:51:13.596Z,6.10
2019-03-15T00:53:42.005Z,6.10
2019-03-15T00:56:10.585Z,6.20
2019-03-15T00:58:39.712Z,6.20
2019-03-15T01:01:08.186Z,6.20
2019-03-15T01:03:36.619Z,6.20
2019-03-15T01:06:05.024Z,6.30
2019-03-15T01:08:33.477Z,6.30
2019-03-15T01:11:01.885Z,6.40
2019-03-15T01:13:30.319Z,6.30
2019-03-15T01:15:58.772Z,6.20
2019-03-15T01:18:27.173Z,6.20
2019-03-15T01:20:55.658Z,6.20
2019-03-15T01:23:24.107Z,6.20
2019-03-15T01:25:52.626Z,6.10
2019-03-15T01:28:21.094Z,6.10
2019-03-15T01:30:49.557Z,6.10
2019-03-15T01:33:17.962Z,6.00
2019-03-15T01:35:46.360Z,6.00
2019-03-15T01:38:14.799Z,6.00
2019-03-15T01:40:43.204Z,6.10
2019-03-15T01:43:11.626Z,6.10
2019-03-15T01:45:40.042Z,6.10
2019-03-15T01:48:08.487Z,6.10
2019-03-15T01:50:36.912Z,6.10
2019-03-15T01:53:05.341Z,6.10
2019-03-15T01:55:33.763Z,6.10
2019-03-15T01:58:02.195Z,6.10
2019-03-15T02:00:30.670Z,6.10
2019-03-15T02:03:02.143Z,6.20
2019-03-15T02:05:29.290Z,6.20
2019-03-15T02:07:57.736Z,6.10
2019-03-15T02:10:26.144Z,6.10
2019-03-15T02:12:54.541Z,6.10
2019-03-15T02:15:23.039Z,6.10
2019-03-15T02:17:52.258Z,6.10
2019-03-15T02:20:22.248Z,6.10
2019-03-15T02:22:50.690Z,6.10
2019-03-15T02:25:19.103Z,6.10
2019-03-15T02:27:47.523Z,6.20
2019-03-15T02:30:15.937Z,6.10
2019-03-15T02:32:44.374Z,6.10
2019-03-15T02:35:12.843Z,6.20
2019-03-15T02:37:41.296Z,6.20
2019-03-15T02:40:09.677Z,6.20
2019-03-15T02:42:38.115Z,6.20
2019-03-15T02:45:06.673Z,6.10
2019-03-15T02:47:35.096Z,6.20
2019-03-15T02:50:04.367Z,6.20
2019-03-15T02:52:32.797Z,6.20
2019-03-15T02:55:01.202Z,6.20
2019-03-15T02:57:29.669Z,6.20
2019-03-15T02:59:58.069Z,6.30
2019-03-15T03:02:27.696Z,6.40
2019-03-15T03:04:56.496Z,6.30
2019-03-15T03:07:24.909Z,6.30
2019-03-15T03:09:53.331Z,6.30
2019-03-15T03:12:21.739Z,6.30
2019-03-15T03:14:50.168Z,6.30
2019-03-15T03:17:18.578Z,6.40
2019-03-15T03:19:47.037Z,6.40
2019-03-15T03:22:15.505Z,6.60
2019-03-15T03:24:43.935Z,6.60
2019-03-15T03:27:12.352Z,6.60
2019-03-15T03:29:40.756Z,6.70
2019-03-15T03:32:09.175Z,6.70
2019-03-15T03:34:39.561Z,6.80
2019-03-15T03:37:07.860Z,6.90
2019-03-15T03:39:36.265Z,7.00
2019-03-15T03:42:04.759Z,7.10
2019-03-15T03:44:33.174Z,7.10
2019-03-15T03:47:01.599Z,7.10
2019-03-15T03:49:29.992Z,7.10
2019-03-15T03:51:58.425Z,7.10
2019-03-15T03:54:27.078Z,7.20
2019-03-15T03:56:55.587Z,7.30
2019-03-15T03:59:24.020Z,7.20
2019-03-15T04:01:52.450Z,7.30
2019-03-15T04:04:20.870Z,7.30
2019-03-15T04:06:49.348Z,7.20
2019-03-15T04:09:17.799Z,7.30
2019-03-15T04:11:55.436Z,7.20
2019-03-15T04:14:16.342Z,7.20
2019-03-15T04:16:44.768Z,7.20
2019-03-15T04:19:13.236Z,7.30
2019-03-15T04:21:41.658Z,7.20
2019-03-15T04:24:10.135Z,7.20
2019-03-15T04:26:38.574Z,7.20
2019-03-15T04:29:06.986Z,7.10
2019-03-15T04:31:35.397Z,7.10
2019-03-15T04:34:03.929Z,7.10
2019-03-15T04:36:32.406Z,7.20
2019-03-15T04:39:00.962Z,7.20
2019-03-15T04:41:29.361Z,7.30
2019-03-15T04:43:57.772Z,7.20
2019-03-15T04:46:26.197Z,7.10
2019-03-15T04:48:54.600Z,7.30
2019-03-15T04:51:23.026Z,7.20
2019-03-15T04:53:51.451Z,7.20
2019-03-15T04:56:19.909Z,7.20
2019-03-15T04:58:48.363Z,7.10
2019-03-15T05:01:16.787Z,7.10
2019-03-15T05:03:45.223Z,7.20
2019-03-15T05:06:13.636Z,7.20
2019-03-15T05:08:42.059Z,7.20
2019-03-15T05:11:10.475Z,7.20
2019-03-15T05:13:38.958Z,7.10
2019-03-15T05:16:07.366Z,7.10
2019-03-15T05:18:35.781Z,7.20
2019-03-15T05:21:04.284Z,7.20
2019-03-15T05:23:32.691Z,7.30
2019-03-15T05:26:01.133Z,7.30
2019-03-15T05:28:29.527Z,7.30
2019-03-15T05:30:57.947Z,7.40
2019-03-15T05:33:26.354Z,7.40
2019-03-15T05:35:54.803Z,7.40
2019-03-15T05:38:23.228Z,7.40
2019-03-15T05:40:52.574Z,7.30
2019-03-15T05:43:21.000Z,7.30
2019-03-15T05:45:49.408Z,7.30
2019-03-15T05:48:17.833Z,7.40
2019-03-15T05:50:46.246Z,7.40
2019-03-15T05:53:14.672Z,7.40
2019-03-15T05:55:43.095Z,7.30
2019-03-15T05:58:11.524Z,7.30
2019-03-15T06:00:39.963Z,7.30
2019-03-15T06:03:08.370Z,7.30
2019-03-15T06:05:36.796Z,7.30
2019-03-15T06:08:05.234Z,7.30
2019-03-15T06:10:35.606Z,7.20
2019-03-15T06:13:04.041Z,7.30
2019-03-15T06:15:32.444Z,7.30
2019-03-15T06:18:00.871Z,7.40
2019-03-15T06:20:29.279Z,7.30
2019-03-15T06:22:57.721Z,7.40
2019-03-15T06:25:26.159Z,7.30
2019-03-15T06:27:54.577Z,7.30
2019-03-15T06:30:23.033Z,7.30
2019-03-15T06:32:51.455Z,7.20
2019-03-15T06:35:19.927Z,7.20
2019-03-15T06:37:48.612Z,7.20
2019-03-15T06:40:17.038Z,7.10
2019-03-15T06:42:45.473Z,7.20
2019-03-15T06:45:14.611Z,7.20
2019-03-15T06:47:44.685Z,7.20
2019-03-15T06:50:13.674Z,7.20
2019-03-15T06:52:42.337Z,7.10
2019-03-15T06:55:10.811Z,7.10
2019-03-15T06:57:39.262Z,7.20
2019-03-15T07:00:12.864Z,7.20
2019-03-15T07:02:41.300Z,7.30
2019-03-15T07:05:12.013Z,7.40
2019-03-15T07:07:39.972Z,7.50
2019-03-15T07:10:10.163Z,7.50
2019-03-15T07:12:40.279Z,7.60
2019-03-15T07:15:11.215Z,7.70
2019-03-15T07:17:39.608Z,7.80
2019-03-15T07:20:13.597Z,7.90
2019-03-15T07:22:42.020Z,8.00
2019-03-15T07:25:16.386Z,8.10
2019-03-15T07:27:44.793Z,8.20
2019-03-15T07:30:15.617Z,8.30
2019-03-15T07:32:44.105Z,8.40
2019-03-15T07:35:12.595Z,8.50
2019-03-15T07:37:40.999Z,8.60
2019-03-15T07:40:11.855Z,8.70
2019-03-15T07:42:40.295Z,8.80
2019-03-15T07:45:13.402Z,8.90
2019-03-15T07:47:41.838Z,8.90
2019-03-15T07:50:14.299Z,8.90
2019-03-15T07:52:41.854Z,9.00
2019-03-15T07:55:10.808Z,9.10
2019-03-15T07:57:39.300Z,9.10
2019-03-15T08:00:10.916Z,9.10
2019-03-15T08:02:39.384Z,9.20
2019-03-15T08:05:08.839Z,9.30
2019-03-15T08:07:44.355Z,9.30
2019-03-15T08:10:10.095Z,9.30
2019-03-15T08:12:38.956Z,9.30
2019-03-15T08:15:09.782Z,9.40
2019-03-15T08:17:38.200Z,9.40
2019-03-15T08:20:16.619Z,9.40
2019-03-15T08:22:45.020Z,9.40
2019-03-15T08:25:13.715Z,9.50
2019-03-15T08:27:42.134Z,9.60
2019-03-15T08:30:12.783Z,9.60
2019-03-15T08:32:43.286Z,9.60
2019-03-15T08:35:12.066Z,9.70
2019-03-15T08:37:40.568Z,9.70
2019-03-15T08:40:10.805Z,9.70
2019-03-15T08:42:39.371Z,9.70
2019-03-15T08:45:18.941Z,9.70
2019-03-15T08:47:47.375Z,9.80
2019-03-15T08:50:17.151Z,9.70
2019-03-15T08:52:45.658Z,9.80
2019-03-15T08:55:14.510Z,9.80
2019-03-15T08:57:42.950Z,9.80
2019-03-15T09:00:17.043Z,9.80
2019-03-15T09:02:45.599Z,9.90
2019-03-15T09:05:15.081Z,9.80
2019-03-15T09:07:43.477Z,9.80
2019-03-15T09:10:23.138Z,9.80
2019-03-15T09:12:47.398Z,9.80
2019-03-15T09:15:16.284Z,9.80
2019-03-15T09:17:44.743Z,9.80
2019-03-15T09:20:15.387Z,9.80
2019-03-15T09:22:43.798Z,9.80
2019-03-15T09:25:19.632Z,9.90
2019-03-15T09:27:45.873Z,9.80
2019-03-15T09:30:23.643Z,9.90
2019-03-15T09:32:48.264Z,9.90
2019-03-15T09:35:16.690Z,10.00
2019-03-15T09:37:47.396Z,10.00
2019-03-15T09:40:16.812Z,10.00
2019-03-15T09:42:45.295Z,10.00
2019-03-15T09:45:17.692Z,10.00
2019-03-15T09:47:46.294Z,10.10
2019-03-15T09:50:26.544Z,10.10
2019-03-15T09:52:45.805Z,10.00
2019-03-15T09:55:14.499Z,10.00
2019-03-15T09:57:42.916Z,10.10
2019-03-15T10:00:14.069Z,10.00
2019-03-15T10:02:42.551Z,10.00
2019-03-15T10:05:11.734Z,10.00
2019-03-15T10:07:43.064Z,10.10
2019-03-15T10:10:18.667Z,10.00
2019-03-15T10:12:47.007Z,10.10
2019-03-15T10:15:16.287Z,10.10
2019-03-15T10:17:44.778Z,10.10
2019-03-15T10:20:14.900Z,10.10
2019-03-15T10:22:43.331Z,10.10
2019-03-15T10:25:15.874Z,10.20
2019-03-15T10:27:44.381Z,10.20
2019-03-15T10:30:15.566Z,10.20
2019-03-15T10:32:44.430Z,10.20
2019-03-15T10:35:12.933Z,10.20
2019-03-15T10:37:41.358Z,10.20
2019-03-15T10:40:15.786Z,10.20
2019-03-15T10:42:44.202Z,10.20
2019-03-15T10:45:12.989Z,10.30
2019-03-15T10:47:42.572Z,10.30
2019-03-15T10:50:16.368Z,10.30
2019-03-15T10:52:44.957Z,10.30
2019-03-15T10:55:13.524Z,10.30
2019-03-15T10:57:41.942Z,10.30
2019-03-15T11:00:19.216Z,10.30
2019-03-15T11:02:47.736Z,10.20
2019-03-15T11:05:16.351Z,10.30
2019-03-15T11:07:44.860Z,10.30
2019-03-15T11:10:13.774Z,10.30
2019-03-15T11:12:42.216Z,10.30
2019-03-15T11:15:14.746Z,10.40
2019-03-15T11:17:43.237Z,10.30
2019-03-15T11:20:12.508Z,10.30
2019-03-15T11:22:40.949Z,10.40
2019-03-15T11:25:10.617Z,10.40
2019-03-15T11:27:39.034Z,10.30
2019-03-15T11:30:15.007Z,10.30
2019-03-15T11:32:43.495Z,10.40
2019-03-15T11:35:12.592Z,10.40
2019-03-15T11:37:41.077Z,10.40
2019-03-15T11:40:14.123Z,10.40
2019-03-15T11:42:42.141Z,10.40
2019-03-15T11:45:11.690Z,10.40
2019-03-15T11:48:01.311Z,10.40
2019-03-15T11:50:18.246Z,10.40
2019-03-15T11:52:46.709Z,10.50
2019-03-15T11:55:15.212Z,10.50
2019-03-15T11:57:43.628Z,10.40
2019-03-15T12:00:17.321Z,10.50
2019-03-15T12:02:45.749Z,10.50
2019-03-15T12:05:14.800Z,10.50
2019-03-15T12:07:43.373Z,10.60
2019-03-15T12:10:13.883Z,10.60
2019-03-15T12:12:42.321Z,10.60
2019-03-15T12:15:16.418Z,10.60
2019-03-15T12:17:44.858Z,10.60
2019-03-15T12:20:13.514Z,10.50
2019-03-15T12:22:41.952Z,10.60
2019-03-15T12:25:11.501Z,10.60
2019-03-15T12:27:39.914Z,10.60
2019-03-15T12:30:11.323Z,10.60
2019-03-15T12:32:39.744Z,10.70
2019-03-15T12:35:12.056Z,10.70
2019-03-15T12:37:40.474Z,10.80
2019-03-15T12:40:15.834Z,10.80
2019-03-15T12:42:44.236Z,10.70
2019-03-15T12:45:13.719Z,10.70
2019-03-15T12:47:42.140Z,10.70
2019-03-15T12:50:15.314Z,10.80
2019-03-15T12:52:47.624Z,10.80
2019-03-15T12:55:14.537Z,10.80
2019-03-15T12:57:43.953Z,10.90
2019-03-15T13:00:14.283Z,10.80
2019-03-15T13:02:42.725Z,10.80
2019-03-15T13:05:11.283Z,10.80
2019-03-15T13:07:39.725Z,10.80
2019-03-15T13:10:16.397Z,10.90
2019-03-15T13:12:44.824Z,10.90
2019-03-15T13:15:15.371Z,11.00
2019-03-15T13:17:43.949Z,11.00
2019-03-15T13:20:14.091Z,11.00
2019-03-15T13:22:42.517Z,11.10
2019-03-15T13:25:11.789Z,11.20
2019-03-15T13:27:40.217Z,11.20
2019-03-15T13:30:13.715Z,11.20
2019-03-15T13:32:42.148Z,11.10
2019-03-15T13:35:11.012Z,11.10
2019-03-15T13:37:42.520Z,11.20
2019-03-15T13:40:11.969Z,11.20
2019-03-15T13:42:40.372Z,11.20
2019-03-15T13:45:10.957Z,11.20
2019-03-15T13:47:39.460Z,11.20
2019-03-15T13:50:12.978Z,11.20
2019-03-15T13:52:41.461Z,11.10
2019-03-15T13:55:10.046Z,11.00
2019-03-15T13:57:38.503Z,11.10
2019-03-15T14:00:15.001Z,11.00
2019-03-15T14:02:43.409Z,11.00
2019-03-15T14:05:11.939Z,11.00
2019-03-15T14:07:40.361Z,11.00
2019-03-15T14:10:13.765Z,11.00
2019-03-15T14:12:42.198Z,11.00
2019-03-15T14:15:15.315Z,11.00
2019-03-15T14:17:43.747Z,10.90
2019-03-15T14:20:13.002Z,10.80
2019-03-15T14:22:41.559Z,10.80
2019-03-15T14:25:17.795Z,10.70
2019-03-15T14:27:46.224Z,10.70
2019-03-15T14:30:14.802Z,10.70
2019-03-15T14:32:43.235Z,10.70
2019-03-15T14:35:11.717Z,10.60
2019-03-15T14:37:40.305Z,10.70
2019-03-15T14:40:11.133Z,10.70
2019-03-15T14:42:39.888Z,10.70
2019-03-15T14:45:11.449Z,10.70
2019-03-15T14:47:40.050Z,10.70
2019-03-15T14:50:10.005Z,10.80
2019-03-15T14:52:38.496Z,11.00
2019-03-15T14:55:09.297Z,11.00
2019-03-15T14:57:50.532Z,10.90
2019-03-15T15:00:20.771Z,10.90
2019-03-15T15:02:49.261Z,10.90
2019-03-15T15:05:17.681Z,10.90
2019-03-15T15:07:46.087Z,10.90
2019-03-15T15:10:15.959Z,11.00
2019-03-15T15:12:44.371Z,11.00
2019-03-15T15:15:14.927Z,11.10
2019-03-15T15:17:43.386Z,11.00
2019-03-15T15:20:12.405Z,11.10
2019-03-15T15:22:40.810Z,11.10
2019-03-15T15:25:10.982Z,11.00
2019-03-15T15:27:39.405Z,11.00
2019-03-15T15:30:13.011Z,11.10
2019-03-15T15:32:41.503Z,11.10
2019-03-15T15:35:11.448Z,11.10
2019-03-15T15:37:39.952Z,11.20
2019-03-15T15:40:12.704Z,11.20
2019-03-15T15:42:42.082Z,11.10
2019-03-15T15:45:11.646Z,11.10
2019-03-15T15:47:40.972Z,11.20
2019-03-15T15:50:12.461Z,11.20
2019-03-15T15:52:40.963Z,11.20
2019-03-15T15:55:11.006Z,11.20
2019-03-15T15:57:39.442Z,11.20
2019-03-15T16:00:18.461Z,11.30
2019-03-15T16:02:47.002Z,11.30
2019-03-15T16:05:15.542Z,11.20
2019-03-15T16:07:44.113Z,11.20
2019-03-15T16:10:17.365Z,11.20
2019-03-15T16:12:44.599Z,11.20
2019-03-15T16:15:14.358Z,11.10
2019-03-15T16:17:45.384Z,11.10
2019-03-15T16:20:14.552Z,11.10
2019-03-15T16:22:42.974Z,11.10
2019-03-15T16:25:11.941Z,11.10
2019-03-15T16:27:40.368Z,11.20
2019-03-15T16:30:11.913Z,11.10
2019-03-15T16:32:40.332Z,11.10
2019-03-15T16:35:13.131Z,11.20
2019-03-15T16:37:41.921Z,11.20
2019-03-15T16:40:12.563Z,11.10
2019-03-15T16:42:40.963Z,11.20
2019-03-15T16:45:15.096Z,11.20
2019-03-15T16:47:42.635Z,11.10
2019-03-15T16:50:12.730Z,11.10
2019-03-15T16:52:41.138Z,11.00
2019-03-15T16:55:13.698Z,11.10
2019-03-15T16:57:43.102Z,11.10
2019-03-15T17:00:13.729Z,11.10
2019-03-15T17:02:42.163Z,11.10
2019-03-15T17:05:11.963Z,11.20
2019-03-15T17:07:40.383Z,11.20
2019-03-15T17:10:11.006Z,11.10
2019-03-15T17:12:39.451Z,11.10
2019-03-15T17:15:10.967Z,11.10
2019-03-15T17:17:39.402Z,11.10
2019-03-15T17:20:10.064Z,11.20
2019-03-15T17:22:38.587Z,11.10
2019-03-15T17:25:10.010Z,11.10
2019-03-15T17:27:38.591Z,11.10
2019-03-15T17:30:12.359Z,11.00
2019-03-15T17:32:40.776Z,11.00
2019-03-15T17:35:20.743Z,11.20
2019-03-15T17:37:49.215Z,11.10
2019-03-15T17:40:22.053Z,11.10
2019-03-15T17:42:50.551Z,11.10
2019-03-15T17:45:19.036Z,11.10
2019-03-15T17:47:47.548Z,11.10
2019-03-15T17:50:21.022Z,11.10
2019-03-15T17:52:49.515Z,11.10
2019-03-15T17:55:18.511Z,11.10
2019-03-15T17:57:46.990Z,11.10
2019-03-15T18:00:28.258Z,11.10
2019-03-15T18:02:56.798Z,11.10
2019-03-15T18:05:25.205Z,11.10
2019-03-15T18:07:53.645Z,11.10
2019-03-15T18:10:22.154Z,11.10
2019-03-15T18:12:50.654Z,11.10
2019-03-15T18:15:19.061Z,11.10
2019-03-15T18:17:47.542Z,11.10
2019-03-15T18:20:15.972Z,11.20
2019-03-15T18:22:44.441Z,11.00
2019-03-15T18:25:12.882Z,11.00
2019-03-15T18:27:41.344Z,11.20
2019-03-15T18:30:14.960Z,11.10
2019-03-15T18:32:43.446Z,11.10
2019-03-15T18:35:12.601Z,11.10
2019-03-15T18:37:41.099Z,11.10
2019-03-15T18:40:20.630Z,11.10
2019-03-15T18:42:49.197Z,11.20
2019-03-15T18:45:18.345Z,11.10
2019-03-15T18:47:46.825Z,11.20
2019-03-15T18:50:23.340Z,11.10
2019-03-15T18:52:51.767Z,11.10
2019-03-15T18:55:20.295Z,11.10
2019-03-15T18:57:48.718Z,11.10
2019-03-15T19:00:19.643Z,11.10
2019-03-15T19:02:48.219Z,11.10
2019-03-15T19:05:16.696Z,11.10
2019-03-15T19:07:45.147Z,11.20
2019-03-15T19:10:16.831Z,11.20
2019-03-15T19:12:45.319Z,11.10
2019-03-15T19:15:15.189Z,11.10
2019-03-15T19:17:43.593Z,11.10
2019-03-15T19:20:13.585Z,11.10
2019-03-15T19:22:41.998Z,11.10
2019-03-15T19:25:11.459Z,11.10
2019-03-15T19:27:40.018Z,11.20
2019-03-15T19:30:19.125Z,11.20
2019-03-15T19:32:47.675Z,11.20
2019-03-15T19:35:16.084Z,11.10
2019-03-15T19:37:44.498Z,11.20
2019-03-15T19:40:15.157Z,11.20
2019-03-15T19:42:45.417Z,11.20
2019-03-15T19:45:16.157Z,11.20
2019-03-15T19:47:44.713Z,11.20
2019-03-15T19:50:21.025Z,11.20
2019-03-15T19:52:49.580Z,11.20
2019-03-15T19:55:17.992Z,11.20
2019-03-15T19:57:46.482Z,11.20
2019-03-15T20:00:20.085Z,11.20
2019-03-15T20:02:48.596Z,11.20
2019-03-15T20:05:17.016Z,11.20
2019-03-15T20:07:45.596Z,11.10
2019-03-15T20:10:17.632Z,11.10
2019-03-15T20:12:46.047Z,11.00
2019-03-15T20:15:17.647Z,10.90
2019-03-15T20:17:46.090Z,10.80
2019-03-15T20:20:15.870Z,10.80
2019-03-15T20:22:44.370Z,10.80
2019-03-15T20:25:14.035Z,10.80
2019-03-15T20:27:42.750Z,10.70
2019-03-15T20:30:21.276Z,10.60
2019-03-15T20:32:44.452Z,10.60
2019-03-15T20:35:13.075Z,10.50
2019-03-15T20:37:41.493Z,10.50
2019-03-15T20:40:14.887Z,10.50
2019-03-15T20:42:43.632Z,10.40
2019-03-15T20:45:20.151Z,10.40
2019-03-15T20:47:48.564Z,10.40
2019-03-15T20:50:17.013Z,10.60
2019-03-15T20:52:45.422Z,10.70
2019-03-15T20:55:13.924Z,10.60
2019-03-15T20:57:42.349Z,10.60
2019-03-15T21:00:16.279Z,10.60
2019-03-15T21:02:44.778Z,10.60
2019-03-15T21:05:13.331Z,10.60
2019-03-15T21:07:43.453Z,10.60
2019-03-15T21:10:13.649Z,10.60
2019-03-15T21:12:43.047Z,10.60
2019-03-15T21:15:15.282Z,10.50
2019-03-15T21:17:43.945Z,10.50
2019-03-15T21:20:17.521Z,10.60
2019-03-15T21:22:46.004Z,10.60
2019-03-15T21:25:14.426Z,10.60
2019-03-15T21:27:52.799Z,10.60
2019-03-15T21:30:15.863Z,10.70
2019-03-15T21:32:44.315Z,10.70
2019-03-15T21:35:12.755Z,10.70
2019-03-15T21:37:41.255Z,10.80
2019-03-15T21:40:11.634Z,10.70
2019-03-15T21:42:40.160Z,10.70
2019-03-15T21:45:10.532Z,10.80
2019-03-15T21:47:39.016Z,10.80
2019-03-15T21:50:13.032Z,10.70
2019-03-15T21:52:41.446Z,10.80
2019-03-15T21:55:09.989Z,10.80
2019-03-15T21:57:38.527Z,10.80
2019-03-15T22:00:30.874Z,10.80
2019-03-15T22:02:59.396Z,10.70
2019-03-15T22:05:27.831Z,10.70
2019-03-15T22:07:56.351Z,10.80
2019-03-15T22:10:24.770Z,10.80
2019-03-15T22:12:53.224Z,10.80
2019-03-15T22:15:21.678Z,10.80
2019-03-15T22:17:50.346Z,10.80
2019-03-15T22:20:18.862Z,10.80
2019-03-15T22:22:47.285Z,10.90
2019-03-15T22:25:15.875Z,10.80
2019-03-15T22:27:45.313Z,10.80
2019-03-15T22:30:15.650Z,10.80
2019-03-15T22:32:44.149Z,10.90
2019-03-15T22:35:14.118Z,10.80
2019-03-15T22:37:42.613Z,10.80
2019-03-15T22:40:12.977Z,10.70
2019-03-15T22:42:41.466Z,10.80
2019-03-15T22:45:11.989Z,10.80
2019-03-15T22:47:40.480Z,10.80
2019-03-15T22:50:10.705Z,10.80
2019-03-15T22:52:39.217Z,10.80
2019-03-15T22:55:09.498Z,10.70
2019-03-15T22:57:37.902Z,10.70
2019-03-15T23:00:17.625Z,10.80
2019-03-15T23:02:46.080Z,10.80
2019-03-15T23:05:14.992Z,10.80
2019-03-15T23:07:43.565Z,10.80
2019-03-15T23:10:12.200Z,10.70
2019-03-15T23:12:40.774Z,10.70
2019-03-15T23:15:11.194Z,10.70
2019-03-15T23:17:39.618Z,10.70
2019-03-15T23:20:10.456Z,10.70
2019-03-15T23:22:39.447Z,10.70
2019-03-15T23:25:08.598Z,10.60
2019-03-15T23:27:37.007Z,10.60
2019-03-15T23:30:16.262Z,10.60
2019-03-15T23:32:44.749Z,10.60
2019-03-15T23:35:13.320Z,10.50
2019-03-15T23:37:41.745Z,10.70
2019-03-15T23:40:12.364Z,10.70
2019-03-15T23:42:40.779Z,10.70
2019-03-15T23:45:10.235Z,10.70
2019-03-15T23:47:38.760Z,10.60
2019-03-15T23:50:10.254Z,10.50
2019-03-15T23:52:38.674Z,10.40
2019-03-15T23:55:07.179Z,10.40
2019-03-15T23:57:35.625Z,10.40
